Time;durP1;ratioP1;P1;durP2;ratioP2;P2;SDS_P1;SDS_P2;PMS_P1;PMS_P2;Temp;Humidity;BMP_temperature;BMP_pressure;BME280_temperature;BME280_humidity;BME280_pressure;Samples;Min_cycle;Max_cycle;Signal;HPM_P1;HPM_P2
2022/08/28 00:00:29;;;;;;;28.83;5.22;;;;;;;;;;5037567;23;20094;-70
2022/08/28 00:02:56;;;;;;;29.25;5.93;;;;;;;;;;5082210;28;20404;-70
2022/08/28 00:05:24;;;;;;;25.25;5.07;;;;;;;;;;5082348;28;20031;-70
2022/08/28 00:07:50;;;;;;;29.02;6.00;;;;;;;;;;5063157;28;20063;-70
2022/08/28 00:10:17;;;;;;;27.42;4.82;;;;;;;;;;5078960;28;20036;-70
2022/08/28 00:12:44;;;;;;;31.10;4.97;;;;;;;;;;5081440;28;20024;-70
2022/08/28 00:15:12;;;;;;;22.17;5.00;;;;;;;;;;5089313;28;20055;-71
2022/08/28 00:17:38;;;;;;;23.90;4.68;;;;;;;;;;5085921;28;20024;-70
2022/08/28 00:20:05;;;;;;;27.95;4.85;;;;;;;;;;5081541;28;20021;-71
2022/08/28 00:22:31;;;;;;;19.65;5.00;;;;;;;;;;5071535;28;20108;-71
2022/08/28 00:24:56;;;;;;;23.02;5.07;;;;;;;;;;5071636;28;20056;-70
2022/08/28 00:30:07;;;;;;;26.15;4.95;;;;;;;;;;5071459;28;20039;-70
2022/08/28 00:32:34;;;;;;;24.67;5.28;;;;;;;;;;5071388;28;20100;-70
2022/08/28 00:35:01;;;;;;;27.10;5.57;;;;;;;;;;5071562;28;20078;-71
2022/08/28 00:37:27;;;;;;;32.10;5.47;;;;;;;;;;5071371;28;20473;-70
2022/08/28 00:39:53;;;;;;;35.20;5.57;;;;;;;;;;5071870;28;20040;-70
2022/08/28 00:42:19;;;;;;;22.33;5.25;;;;;;;;;;5071611;28;20090;-70
2022/08/28 00:44:46;;;;;;;29.40;5.22;;;;;;;;;;5071517;28;20036;-70
2022/08/28 00:47:12;;;;;;;27.15;5.00;;;;;;;;;;5075313;28;20032;-70
2022/08/28 00:49:45;;;;;;;28.27;5.13;;;;;;;;;;5075123;28;20026;-70
2022/08/28 00:52:14;;;;;;;17.02;4.25;;;;;;;;;;5075304;28;20028;-71
2022/08/28 00:54:47;;;;;;;23.48;5.13;;;;;;;;;;5075093;28;20025;-71
2022/08/28 00:57:17;;;;;;;21.92;5.10;;;;;;;;;;5075162;28;20059;-71
2022/08/28 00:59:43;;;;;;;30.58;5.60;;;;;;;;;;5075471;28;20025;-71
2022/08/28 01:02:10;;;;;;;24.38;5.20;;;;;;;;;;5074840;28;20116;-71
2022/08/28 01:04:37;;;;;;;29.88;5.38;;;;;;;;;;5075118;28;20027;-71
2022/08/28 01:07:05;;;;;;;29.67;5.22;;;;;;;;;;5074723;28;20035;-71
2022/08/28 01:09:31;;;;;;;29.30;5.82;;;;;;;;;;5074833;28;20021;-71
2022/08/28 01:12:01;;;;;;;22.95;5.60;;;;;;;;;;5074631;28;20469;-71
2022/08/28 01:14:28;;;;;;;33.20;5.28;;;;;;;;;;5074964;28;20019;-70
2022/08/28 01:16:55;;;;;;;29.00;5.63;;;;;;;;;;5074761;28;20359;-70
2022/08/28 01:19:34;;;;;;;29.40;5.85;;;;;;;;;;5074751;28;20028;-70
2022/08/28 01:22:00;;;;;;;29.00;5.70;;;;;;;;;;5074566;28;20028;-70
2022/08/28 01:24:26;;;;;;;26.42;5.40;;;;;;;;;;5074800;28;20096;-70
2022/08/28 01:26:52;;;;;;;31.23;5.90;;;;;;;;;;5074310;28;20075;-71
2022/08/28 01:29:19;;;;;;;24.73;5.18;;;;;;;;;;5074762;28;20488;-72
2022/08/28 01:31:47;;;;;;;34.03;5.50;;;;;;;;;;5075447;28;20044;-71
2022/08/28 01:34:13;;;;;;;21.55;4.90;;;;;;;;;;5077588;28;20099;-71
2022/08/28 01:36:40;;;;;;;27.67;5.85;;;;;;;;;;5090085;28;20050;-71
2022/08/28 01:39:11;;;;;;;26.75;5.63;;;;;;;;;;5093429;28;20031;-71
2022/08/28 01:41:38;;;;;;;23.95;5.10;;;;;;;;;;5093968;28;20036;-69
2022/08/28 01:44:05;;;;;;;29.23;6.00;;;;;;;;;;5096876;28;20463;-69
2022/08/28 01:46:31;;;;;;;31.65;6.05;;;;;;;;;;5089866;28;20390;-73
2022/08/28 01:48:57;;;;;;;27.85;5.28;;;;;;;;;;5075251;28;20095;-71
2022/08/28 01:51:23;;;;;;;27.63;5.82;;;;;;;;;;5074212;28;20055;-72
2022/08/28 01:53:48;;;;;;;26.30;5.50;;;;;;;;;;5074288;28;20070;-70
2022/08/28 01:56:15;;;;;;;25.42;5.15;;;;;;;;;;5073563;28;20040;-72
2022/08/28 01:58:41;;;;;;;36.30;6.22;;;;;;;;;;5074107;28;20107;-72
2022/08/28 02:01:15;;;;;;;24.00;5.38;;;;;;;;;;5074080;28;20040;-71
2022/08/28 02:03:41;;;;;;;22.55;5.20;;;;;;;;;;5073877;28;20025;-71
2022/08/28 02:06:08;;;;;;;26.58;5.30;;;;;;;;;;5073173;28;20028;-71
2022/08/28 02:08:35;;;;;;;27.27;5.40;;;;;;;;;;5073179;28;20028;-71
2022/08/28 02:11:01;;;;;;;29.52;5.15;;;;;;;;;;5072881;28;20517;-72
2022/08/28 02:13:27;;;;;;;24.10;5.15;;;;;;;;;;5073036;28;20740;-70
2022/08/28 02:15:53;;;;;;;24.73;5.22;;;;;;;;;;5072591;28;20028;-71
2022/08/28 02:18:19;;;;;;;23.42;5.15;;;;;;;;;;5072896;28;20021;-70
2022/08/28 02:20:45;;;;;;;28.88;5.85;;;;;;;;;;5072596;28;20100;-70
2022/08/28 02:23:12;;;;;;;25.88;5.38;;;;;;;;;;5072488;28;20024;-71
2022/08/28 02:25:38;;;;;;;22.83;5.95;;;;;;;;;;5072227;28;20025;-71
2022/08/28 02:28:04;;;;;;;28.67;5.68;;;;;;;;;;5072357;28;20024;-71
2022/08/28 02:30:30;;;;;;;21.90;4.90;;;;;;;;;;5072535;28;20082;-70
2022/08/28 02:32:56;;;;;;;31.88;5.85;;;;;;;;;;5072507;28;20020;-71
2022/08/28 02:35:23;;;;;;;24.17;4.53;;;;;;;;;;5072648;28;20031;-71
2022/08/28 02:37:49;;;;;;;33.25;6.35;;;;;;;;;;5072287;28;20021;-71
2022/08/28 02:40:16;;;;;;;30.20;6.30;;;;;;;;;;5072339;28;20036;-72
2022/08/28 02:42:43;;;;;;;26.85;5.53;;;;;;;;;;5072157;28;20024;-72
2022/08/28 02:45:10;;;;;;;31.95;5.57;;;;;;;;;;5077043;28;20104;-71
2022/08/28 02:47:37;;;;;;;27.95;5.20;;;;;;;;;;5070001;28;20024;-71
2022/08/28 02:50:04;;;;;;;27.95;6.38;;;;;;;;;;5071812;28;20048;-72
2022/08/28 02:52:30;;;;;;;35.80;5.60;;;;;;;;;;5071932;28;20082;-71
2022/08/28 02:54:56;;;;;;;29.33;6.20;;;;;;;;;;5072595;28;20032;-72
2022/08/28 02:57:22;;;;;;;33.88;5.88;;;;;;;;;;5071826;28;20436;-72
2022/08/28 02:59:47;;;;;;;22.25;5.13;;;;;;;;;;5072101;28;20032;-74
2022/08/28 03:02:14;;;;;;;31.00;6.53;;;;;;;;;;5072190;28;20428;-72
2022/08/28 03:04:40;;;;;;;27.35;5.50;;;;;;;;;;5072094;28;20067;-72
2022/08/28 03:07:08;;;;;;;22.55;5.63;;;;;;;;;;5071215;28;20035;-72
2022/08/28 03:09:34;;;;;;;28.30;5.40;;;;;;;;;;5070660;28;20044;-73
2022/08/28 03:12:00;;;;;;;32.22;5.60;;;;;;;;;;5071460;28;20029;-72
2022/08/28 03:14:26;;;;;;;27.40;5.40;;;;;;;;;;5071586;28;20503;-73
2022/08/28 03:16:52;;;;;;;26.13;5.82;;;;;;;;;;5071306;28;20020;-73
2022/08/28 03:19:18;;;;;;;24.50;5.75;;;;;;;;;;5071457;28;20090;-72
2022/08/28 03:21:44;;;;;;;24.77;5.85;;;;;;;;;;5071280;28;20082;-72
2022/08/28 03:24:10;;;;;;;27.17;5.65;;;;;;;;;;5070756;28;20493;-72
2022/08/28 03:26:36;;;;;;;32.00;6.18;;;;;;;;;;5071424;28;20034;-74
2022/08/28 03:29:02;;;;;;;20.77;5.00;;;;;;;;;;5071278;28;20048;-73
2022/08/28 03:31:32;;;;;;;26.35;5.57;;;;;;;;;;5071272;28;20021;-74
2022/08/28 03:33:58;;;;;;;25.70;5.10;;;;;;;;;;5053378;28;20020;-73
2022/08/28 03:36:24;;;;;;;30.95;5.70;;;;;;;;;;5071241;28;20020;-71
2022/08/28 03:38:51;;;;;;;24.05;5.00;;;;;;;;;;5071328;28;20104;-71
2022/08/28 03:41:19;;;;;;;26.50;5.82;;;;;;;;;;5071478;28;20048;-71
2022/08/28 03:43:44;;;;;;;24.08;5.05;;;;;;;;;;5072092;28;20056;-71
2022/08/28 03:46:18;;;;;;;24.15;5.00;;;;;;;;;;5071878;28;20071;-71
2022/08/28 03:48:44;;;;;;;26.42;5.70;;;;;;;;;;5071922;28;20081;-71
2022/08/28 03:51:12;;;;;;;21.60;4.82;;;;;;;;;;5071962;28;20103;-71
2022/08/28 03:53:38;;;;;;;21.50;4.82;;;;;;;;;;5056326;28;20362;-71
2022/08/28 03:56:12;;;;;;;25.88;6.03;;;;;;;;;;5080709;28;20044;-71
2022/08/28 03:58:39;;;;;;;27.63;5.07;;;;;;;;;;5086627;28;20024;-70
2022/08/28 04:01:05;;;;;;;24.00;5.13;;;;;;;;;;5085828;28;20081;-73
2022/08/28 04:03:31;;;;;;;25.98;5.00;;;;;;;;;;5083362;28;20292;-72
2022/08/28 04:05:57;;;;;;;27.77;5.53;;;;;;;;;;5085441;28;20048;-72
2022/08/28 04:08:24;;;;;;;32.88;5.63;;;;;;;;;;5084111;28;20037;-72
2022/08/28 04:10:50;;;;;;;33.95;6.28;;;;;;;;;;5071846;28;20028;-71
2022/08/28 04:13:17;;;;;;;29.45;5.97;;;;;;;;;;5071930;28;20027;-72
2022/08/28 04:15:43;;;;;;;29.73;4.95;;;;;;;;;;5054157;28;20107;-70
2022/08/28 04:18:09;;;;;;;27.13;6.03;;;;;;;;;;5072145;28;20031;-70
2022/08/28 04:20:36;;;;;;;25.38;5.28;;;;;;;;;;5074727;28;20029;-72
2022/08/28 04:23:02;;;;;;;23.67;5.28;;;;;;;;;;5075634;28;20035;-71
2022/08/28 04:25:28;;;;;;;25.02;5.05;;;;;;;;;;5075426;28;20021;-71
2022/08/28 04:27:54;;;;;;;23.65;5.75;;;;;;;;;;5075593;28;20396;-70
2022/08/28 04:30:20;;;;;;;26.38;5.35;;;;;;;;;;5075458;28;20024;-72
2022/08/28 04:32:46;;;;;;;22.00;5.15;;;;;;;;;;5075678;28;20024;-73
2022/08/28 04:35:13;;;;;;;38.90;5.90;;;;;;;;;;5075411;28;20261;-72
2022/08/28 04:37:39;;;;;;;27.92;5.32;;;;;;;;;;5075408;28;20021;-73
2022/08/28 04:40:08;;;;;;;25.17;6.00;;;;;;;;;;5075332;28;20036;-72
2022/08/28 04:42:34;;;;;;;21.75;5.50;;;;;;;;;;5075318;28;20103;-72
2022/08/28 04:45:00;;;;;;;28.38;5.57;;;;;;;;;;5075314;28;20501;-72
2022/08/28 04:47:27;;;;;;;22.35;4.72;;;;;;;;;;5074944;28;20029;-72
2022/08/28 04:49:53;;;;;;;22.95;5.10;;;;;;;;;;5075174;28;20028;-72
2022/08/28 04:52:19;;;;;;;26.60;5.45;;;;;;;;;;5074855;28;20111;-72
2022/08/28 04:54:45;;;;;;;24.10;4.68;;;;;;;;;;5074890;28;20047;-71
2022/08/28 04:57:11;;;;;;;27.65;6.40;;;;;;;;;;5056768;28;20466;-71
2022/08/28 04:59:37;;;;;;;23.20;5.13;;;;;;;;;;5075009;28;20032;-74
2022/08/28 05:02:04;;;;;;;34.30;6.15;;;;;;;;;;5074429;28;20028;-73
2022/08/28 05:04:30;;;;;;;26.67;5.60;;;;;;;;;;5057141;28;20025;-74
2022/08/28 05:06:56;;;;;;;24.10;5.57;;;;;;;;;;5075019;28;20404;-73
2022/08/28 05:09:22;;;;;;;27.98;5.45;;;;;;;;;;5077749;28;20020;-74
2022/08/28 05:11:49;;;;;;;24.73;5.30;;;;;;;;;;5074966;28;20129;-74
2022/08/28 05:14:15;;;;;;;28.73;6.20;;;;;;;;;;5074245;28;20478;-74
2022/08/28 05:16:45;;;;;;;25.70;5.70;;;;;;;;;;5055526;28;20027;-73
2022/08/28 05:19:11;;;;;;;34.05;6.13;;;;;;;;;;5073618;28;20095;-73
2022/08/28 05:21:37;;;;;;;26.25;5.55;;;;;;;;;;5073340;28;20509;-73
2022/08/28 05:24:04;;;;;;;20.33;5.50;;;;;;;;;;5073579;28;20017;-72
2022/08/28 05:26:30;;;;;;;23.52;5.32;;;;;;;;;;5073783;28;20363;-71
2022/08/28 05:28:56;;;;;;;21.33;5.03;;;;;;;;;;5073541;28;20096;-70
2022/08/28 05:31:23;;;;;;;26.48;5.47;;;;;;;;;;5072723;28;20029;-70
2022/08/28 05:33:50;;;;;;;22.17;6.13;;;;;;;;;;5056272;28;20027;-71
2022/08/28 05:36:17;;;;;;;29.95;5.68;;;;;;;;;;5073524;28;20074;-72
2022/08/28 05:38:43;;;;;;;24.45;5.68;;;;;;;;;;5073873;28;20330;-71
2022/08/28 05:41:10;;;;;;;22.67;5.32;;;;;;;;;;5074402;28;20029;-71
2022/08/28 05:43:36;;;;;;;24.25;5.25;;;;;;;;;;5074278;28;20506;-70
2022/08/28 05:46:06;;;;;;;24.83;5.30;;;;;;;;;;5076921;28;20059;-70
2022/08/28 05:48:32;;;;;;;22.58;5.10;;;;;;;;;;5089018;28;20020;-70
2022/08/28 05:51:03;;;;;;;21.40;4.85;;;;;;;;;;5092898;28;20451;-70
2022/08/28 05:53:29;;;;;;;28.92;5.32;;;;;;;;;;5091322;28;20053;-70
2022/08/28 05:55:55;;;;;;;23.73;4.72;;;;;;;;;;5092529;28;20028;-71
2022/08/28 05:58:31;;;;;;;26.42;5.20;;;;;;;;;;5078050;28;20466;-71
2022/08/28 06:01:06;;;;;;;29.35;5.65;;;;;;;;;;5078619;23;20131;-77
2022/08/28 06:03:33;;;;;;;28.02;5.38;;;;;;;;;;4954331;29;20085;-78
2022/08/28 06:05:59;;;;;;;21.45;4.63;;;;;;;;;;4952768;28;20020;-78
2022/08/28 06:08:25;;;;;;;20.42;4.47;;;;;;;;;;4954623;29;20096;-76
2022/08/28 06:10:51;;;;;;;27.70;5.18;;;;;;;;;;4953780;28;20036;-78
2022/08/28 06:13:17;;;;;;;30.15;5.97;;;;;;;;;;4954083;29;20027;-78
2022/08/28 06:15:46;;;;;;;23.90;4.00;;;;;;;;;;4954112;29;20038;-77
2022/08/28 06:18:13;;;;;;;28.48;4.90;;;;;;;;;;4954106;28;20479;-75
2022/08/28 06:20:41;;;;;;;22.50;5.03;;;;;;;;;;4954977;28;20034;-78
2022/08/28 06:23:07;;;;;;;19.85;4.18;;;;;;;;;;4955547;29;20027;-77
2022/08/28 06:25:37;;;;;;;28.17;5.38;;;;;;;;;;4937413;28;20518;-78
2022/08/28 06:28:03;;;;;;;27.92;4.95;;;;;;;;;;4938190;29;20031;-78
2022/08/28 06:30:29;;;;;;;18.90;4.82;;;;;;;;;;4954701;29;20032;-77
2022/08/28 06:32:55;;;;;;;27.63;4.78;;;;;;;;;;4937932;28;20024;-77
2022/08/28 06:35:21;;;;;;;22.27;4.40;;;;;;;;;;4955597;29;20099;-77
2022/08/28 06:37:47;;;;;;;20.15;3.70;;;;;;;;;;4954288;29;20031;-75
2022/08/28 06:40:13;;;;;;;27.98;4.72;;;;;;;;;;4959988;28;20045;-77
2022/08/28 06:42:39;;;;;;;18.80;4.43;;;;;;;;;;4954319;28;20035;-77
2022/08/28 06:45:06;;;;;;;23.45;4.80;;;;;;;;;;4937462;28;20023;-75
2022/08/28 06:47:31;;;;;;;21.98;5.07;;;;;;;;;;4954989;29;20122;-75
2022/08/28 06:49:57;;;;;;;27.00;5.50;;;;;;;;;;4954622;29;20063;-76
2022/08/28 06:52:23;;;;;;;23.75;4.55;;;;;;;;;;4954290;28;20032;-75
2022/08/28 06:54:49;;;;;;;22.85;4.35;;;;;;;;;;4953723;29;20035;-77
2022/08/28 06:57:15;;;;;;;16.15;3.85;;;;;;;;;;4953235;29;20110;-76
2022/08/28 06:59:41;;;;;;;33.08;4.15;;;;;;;;;;4952909;29;20027;-76
2022/08/28 07:02:08;;;;;;;20.13;3.83;;;;;;;;;;4952952;28;20553;-77
2022/08/28 07:04:34;;;;;;;27.98;4.53;;;;;;;;;;4935928;28;20031;-75
2022/08/28 07:07:00;;;;;;;19.23;4.10;;;;;;;;;;4952529;28;20027;-77
2022/08/28 07:09:26;;;;;;;23.50;4.10;;;;;;;;;;4953063;29;20034;-76
2022/08/28 07:11:52;;;;;;;20.52;3.97;;;;;;;;;;4952621;28;20023;-76
2022/08/28 07:14:18;;;;;;;25.40;4.72;;;;;;;;;;4952540;28;20070;-76
2022/08/28 07:16:44;;;;;;;23.98;4.78;;;;;;;;;;4952124;29;20046;-75
2022/08/28 07:19:11;;;;;;;21.95;4.72;;;;;;;;;;4952799;28;20082;-76
2022/08/28 07:21:38;;;;;;;21.67;4.25;;;;;;;;;;4953822;28;20031;-76
2022/08/28 07:24:05;;;;;;;25.35;4.65;;;;;;;;;;4935752;28;20027;-77
2022/08/28 07:26:31;;;;;;;23.45;4.20;;;;;;;;;;4951883;29;20027;-77
2022/08/28 07:28:57;;;;;;;18.77;5.13;;;;;;;;;;4952188;28;20515;-76
2022/08/28 07:31:25;;;;;;;27.00;4.75;;;;;;;;;;4952749;28;20119;-77
2022/08/28 07:33:51;;;;;;;26.10;5.03;;;;;;;;;;4952912;28;20027;-77
2022/08/28 07:36:19;;;;;;;23.25;4.13;;;;;;;;;;4952400;28;20027;-78
2022/08/28 07:38:46;;;;;;;16.73;4.13;;;;;;;;;;4953110;28;20492;-76
2022/08/28 07:41:17;;;;;;;23.70;3.97;;;;;;;;;;4952814;29;20438;-75
2022/08/28 07:46:28;;;;;;;14.82;4.43;;;;;;;;;;4952558;29;20470;-77
2022/08/28 07:48:54;;;;;;;21.33;4.85;;;;;;;;;;4954636;28;20019;-77
2022/08/28 07:51:20;;;;;;;20.05;4.50;;;;;;;;;;4954707;28;20464;-77
2022/08/28 07:53:46;;;;;;;33.53;5.28;;;;;;;;;;4937377;28;20379;-76
2022/08/28 07:56:12;;;;;;;22.48;4.82;;;;;;;;;;4954683;28;20023;-76
2022/08/28 07:58:39;;;;;;;23.60;4.50;;;;;;;;;;4936955;28;20031;-75
2022/08/28 08:01:05;;;;;;;24.75;4.82;;;;;;;;;;4935004;28;20035;-78
2022/08/28 08:03:31;;;;;;;23.20;4.60;;;;;;;;;;4953168;28;20035;-77
2022/08/28 08:06:02;;;;;;;21.52;4.78;;;;;;;;;;4952631;28;20051;-76
2022/08/28 08:08:28;;;;;;;26.92;4.88;;;;;;;;;;4953145;28;20023;-78
2022/08/28 08:11:02;;;;;;;22.92;5.03;;;;;;;;;;4952313;28;20499;-78
2022/08/28 08:13:28;;;;;;;28.95;4.65;;;;;;;;;;4954212;28;20420;-75
2022/08/28 08:15:54;;;;;;;20.80;4.60;;;;;;;;;;4950366;28;20023;-77
2022/08/28 08:18:20;;;;;;;21.85;4.65;;;;;;;;;;4951025;28;20034;-77
2022/08/28 08:20:46;;;;;;;17.45;4.50;;;;;;;;;;4951149;29;20039;-78
2022/08/28 08:23:12;;;;;;;23.75;5.22;;;;;;;;;;4951654;28;20158;-78
2022/08/28 08:25:38;;;;;;;23.55;4.57;;;;;;;;;;4952281;28;20210;-78
2022/08/28 08:28:04;;;;;;;21.10;4.40;;;;;;;;;;4952046;28;20039;-79
2022/08/28 08:30:30;;;;;;;30.80;4.60;;;;;;;;;;4950850;28;20023;-77
2022/08/28 08:32:56;;;;;;;24.15;4.47;;;;;;;;;;4951372;28;20332;-77
2022/08/28 08:35:22;;;;;;;17.77;4.15;;;;;;;;;;4951391;28;20043;-79
2022/08/28 08:37:48;;;;;;;20.75;4.85;;;;;;;;;;4950448;28;20399;-77
2022/08/28 08:40:18;;;;;;;17.33;4.93;;;;;;;;;;4951424;28;20085;-77
2022/08/28 08:42:45;;;;;;;15.98;4.18;;;;;;;;;;4951028;28;20030;-74
2022/08/28 08:45:14;;;;;;;18.45;4.50;;;;;;;;;;4951364;28;20066;-76
2022/08/28 08:47:47;;;;;;;21.58;4.35;;;;;;;;;;4950597;28;20050;-77
2022/08/28 08:50:21;;;;;;;19.80;4.68;;;;;;;;;;4951894;28;20106;-76
2022/08/28 08:53:06;;;;;;;16.42;5.25;;;;;;;;;;4951091;28;20477;-75
2022/08/28 08:55:36;;;;;;;22.75;4.32;;;;;;;;;;4950500;28;20016;-75
2022/08/28 08:58:07;;;;;;;23.13;5.18;;;;;;;;;;4950398;28;20034;-75
2022/08/28 09:00:37;;;;;;;21.20;4.43;;;;;;;;;;4933787;28;20023;-75
2022/08/28 09:03:09;;;;;;;20.15;4.63;;;;;;;;;;4950586;28;20039;-75
2022/08/28 09:05:40;;;;;;;18.42;4.60;;;;;;;;;;4950684;28;20037;-76
2022/08/28 09:08:07;;;;;;;14.75;4.68;;;;;;;;;;4954487;28;20039;-79
2022/08/28 09:10:42;;;;;;;20.50;3.78;;;;;;;;;;4955272;28;20062;-76
2022/08/28 09:13:15;;;;;;;12.88;3.55;;;;;;;;;;4955796;28;20494;-79
2022/08/28 09:15:44;;;;;;;16.33;4.15;;;;;;;;;;4956626;28;20035;-77
2022/08/28 09:18:12;;;;;;;16.15;4.20;;;;;;;;;;4957318;28;20035;-77
2022/08/28 09:20:38;;;;;;;13.75;4.18;;;;;;;;;;4972402;29;20023;-78
2022/08/28 09:23:04;;;;;;;13.85;4.10;;;;;;;;;;4937831;28;20054;-75
2022/08/28 09:25:49;;;;;;;15.00;4.10;;;;;;;;;;4957197;28;20027;-81
2022/08/28 09:28:23;;;;;;;18.60;3.90;;;;;;;;;;4970417;28;20125;-76
2022/08/28 09:30:49;;;;;;;;;;;;;;;;;;4969605;28;20051;-77
2022/08/28 09:33:26;;;;;;;13.82;3.40;;;;;;;;;;4954603;29;19906;-77
2022/08/28 09:35:52;;;;;;;15.35;4.25;;;;;;;;;;4954020;28;20388;-78
2022/08/28 09:38:19;;;;;;;18.30;3.88;;;;;;;;;;4954286;28;20027;-77
2022/08/28 09:43:32;;;;;;;14.07;3.92;;;;;;;;;;4954801;29;20113;-78
2022/08/28 09:46:17;;;;;;;16.42;3.90;;;;;;;;;;4954484;28;20374;-77
2022/08/28 09:48:42;;;;;;;;;;;;;;;;;;4956005;29;20036;-78
2022/08/28 09:51:11;;;;;;;19.58;3.92;;;;;;;;;;4955815;28;20294;-78
2022/08/28 09:53:41;;;;;;;19.33;4.50;;;;;;;;;;4956483;29;20031;-76
2022/08/28 09:56:10;;;;;;;14.63;3.75;;;;;;;;;;4953488;28;20388;-79
2022/08/28 09:58:39;;;;;;;15.88;4.22;;;;;;;;;;4955344;29;20023;-77
2022/08/28 10:01:25;;;;;;;16.55;4.10;;;;;;;;;;4961666;28;20036;-81
2022/08/28 10:03:55;;;;;;;15.60;4.10;;;;;;;;;;4940613;28;20043;-76
2022/08/28 10:06:26;;;;;;;21.23;4.28;;;;;;;;;;4958696;28;20031;-76
2022/08/28 10:09:10;;;;;;;16.23;4.10;;;;;;;;;;4957411;28;20027;-77
2022/08/28 10:11:36;;;;;;;;;;;;;;;;;;4957129;28;20031;-77
2022/08/28 10:14:22;;;;;;;17.20;3.80;;;;;;;;;;4955929;29;19907;-78
2022/08/28 10:17:00;;;;;;;19.73;4.40;;;;;;;;;;4957668;28;20395;-78
2022/08/28 10:19:29;;;;;;;17.55;4.43;;;;;;;;;;4957493;28;20444;-76
2022/08/28 10:22:02;;;;;;;15.32;5.00;;;;;;;;;;4943985;28;20023;-77
2022/08/28 10:24:53;;;;;;;22.92;5.07;;;;;;;;;;4940815;28;20038;-77
2022/08/28 10:27:22;;;;;;;16.88;5.22;;;;;;;;;;4961429;28;20404;-78
2022/08/28 10:29:51;;;;;;;27.95;6.82;;;;;;;;;;5016737;28;20032;-77
2022/08/28 10:32:23;;;;;;;26.08;7.43;;;;;;;;;;4993098;28;20029;-77
2022/08/28 10:35:10;;;;;;;20.42;6.32;;;;;;;;;;4983529;28;20031;-80
2022/08/28 10:37:37;;;;;;;21.42;5.82;;;;;;;;;;4995401;28;20047;-79
2022/08/28 10:40:23;;;;;;;29.17;6.30;;;;;;;;;;4954352;28;20023;-78
2022/08/28 10:43:08;;;;;;;22.92;6.10;;;;;;;;;;4991984;28;20038;-79
2022/08/28 10:45:34;;;;;;;23.30;5.72;;;;;;;;;;5024568;28;20039;-80
2022/08/28 10:48:04;;;;;;;25.63;5.57;;;;;;;;;;4979393;28;20019;-78
2022/08/28 10:50:41;;;;;;;20.17;5.32;;;;;;;;;;4997299;28;20019;-78
2022/08/28 10:53:10;;;;;;;19.65;5.30;;;;;;;;;;4957743;28;20015;-78
2022/08/28 10:55:38;;;;;;;18.88;6.32;;;;;;;;;;4982319;28;20058;-76
2022/08/28 10:58:06;;;;;;;24.30;5.78;;;;;;;;;;4978304;28;20065;-78
2022/08/28 11:00:33;;;;;;;19.55;5.50;;;;;;;;;;5003326;28;20034;-78
2022/08/28 11:03:07;;;;;;;20.08;5.05;;;;;;;;;;5000531;28;20039;-77
2022/08/28 11:05:39;;;;;;;17.63;5.55;;;;;;;;;;4993250;28;20407;-77
2022/08/28 11:08:06;;;;;;;25.85;5.88;;;;;;;;;;4970866;28;20516;-77
2022/08/28 11:10:33;;;;;;;18.77;5.25;;;;;;;;;;4953385;28;20027;-77
2022/08/28 11:12:59;;;;;;;23.58;5.13;;;;;;;;;;4955061;28;20015;-76
2022/08/28 11:15:30;;;;;;;19.33;5.20;;;;;;;;;;4964169;28;20384;-76
2022/08/28 11:17:59;;;;;;;20.90;6.38;;;;;;;;;;4959066;28;20023;-77
2022/08/28 11:20:27;;;;;;;21.08;5.25;;;;;;;;;;4969241;28;20038;-76
2022/08/28 11:23:20;;;;;;;17.45;5.45;;;;;;;;;;4976558;28;20085;-77
2022/08/28 11:25:49;;;;;;;18.08;5.38;;;;;;;;;;4954304;28;20071;-77
2022/08/28 11:28:18;;;;;;;20.40;5.57;;;;;;;;;;4952296;28;20117;-78
2022/08/28 11:30:45;;;;;;;17.10;5.68;;;;;;;;;;4952269;28;20030;-76
2022/08/28 11:33:37;;;;;;;20.13;5.10;;;;;;;;;;4953404;29;20019;-78
2022/08/28 11:36:08;;;;;;;18.85;5.07;;;;;;;;;;4935628;29;20543;-77
2022/08/28 11:38:57;;;;;;;14.68;5.30;;;;;;;;;;4954600;28;20038;-78
2022/08/28 11:41:25;;;;;;;22.30;6.47;;;;;;;;;;4953624;29;20043;-77
2022/08/28 11:43:51;;;;;;;22.17;5.82;;;;;;;;;;4935406;28;20126;-77
2022/08/28 11:46:31;;;;;;;17.83;5.38;;;;;;;;;;4952922;28;20496;-77
2022/08/28 11:48:59;;;;;;;16.75;5.47;;;;;;;;;;4935565;28;20582;-76
2022/08/28 11:51:44;;;;;;;19.67;5.25;;;;;;;;;;4956531;28;20074;-77
2022/08/28 11:54:29;;;;;;;16.33;5.30;;;;;;;;;;4953310;28;20437;-78
2022/08/28 11:57:10;;;;;;;16.27;5.65;;;;;;;;;;4952872;28;20318;-77
2022/08/28 11:59:39;;;;;;;18.70;5.25;;;;;;;;;;4954950;28;20024;-79
2022/08/28 12:02:24;;;;;;;17.65;4.72;;;;;;;;;;5003993;23;20405;-71
2022/08/28 12:04:50;;;;;;;16.63;5.18;;;;;;;;;;5071277;28;20039;-70
2022/08/28 12:07:18;;;;;;;15.30;5.35;;;;;;;;;;5071769;28;20385;-70
2022/08/28 12:09:46;;;;;;;21.10;5.43;;;;;;;;;;5071621;28;20095;-71
2022/08/28 12:12:12;;;;;;;15.07;5.30;;;;;;;;;;5065348;28;20025;-71
2022/08/28 12:14:38;;;;;;;16.75;5.38;;;;;;;;;;5051601;28;20036;-70
2022/08/28 12:17:16;;;;;;;20.30;6.47;;;;;;;;;;5051731;28;20029;-71
2022/08/28 12:19:44;;;;;;;14.65;5.25;;;;;;;;;;5052584;28;20087;-71
2022/08/28 12:22:11;;;;;;;15.82;5.57;;;;;;;;;;5034766;28;20095;-71
2022/08/28 12:24:43;;;;;;;13.63;5.60;;;;;;;;;;5051828;28;20033;-71
2022/08/28 12:27:10;;;;;;;17.25;5.53;;;;;;;;;;5051228;28;20029;-70
2022/08/28 12:29:43;;;;;;;15.32;6.15;;;;;;;;;;5051755;28;20104;-71
2022/08/28 12:32:27;;;;;;;17.63;5.30;;;;;;;;;;5051568;28;20033;-71
2022/08/28 12:34:59;;;;;;;16.70;5.47;;;;;;;;;;5051724;28;20067;-71
2022/08/28 12:37:31;;;;;;;21.00;5.85;;;;;;;;;;5051443;28;20056;-72
2022/08/28 12:40:02;;;;;;;17.40;5.43;;;;;;;;;;5052212;28;20033;-69
2022/08/28 12:42:33;;;;;;;18.60;5.55;;;;;;;;;;5038522;28;20084;-71
2022/08/28 12:45:00;;;;;;;16.42;5.57;;;;;;;;;;5055957;28;20024;-71
2022/08/28 12:47:26;;;;;;;21.83;5.50;;;;;;;;;;5054635;28;20466;-71
2022/08/28 12:49:52;;;;;;;18.00;5.50;;;;;;;;;;5055221;28;20517;-68
2022/08/28 12:52:20;;;;;;;19.48;5.55;;;;;;;;;;5055177;28;20120;-71
2022/08/28 12:54:47;;;;;;;18.55;5.57;;;;;;;;;;5055472;28;20025;-71
2022/08/28 12:57:14;;;;;;;20.10;5.88;;;;;;;;;;5055319;28;20029;-71
2022/08/28 12:59:42;;;;;;;18.77;6.00;;;;;;;;;;5054833;28;20441;-70
2022/08/28 13:02:17;;;;;;;17.17;5.07;;;;;;;;;;5054952;28;20037;-71
2022/08/28 13:04:54;;;;;;;20.38;5.43;;;;;;;;;;5055825;28;20032;-71
2022/08/28 13:07:25;;;;;;;19.00;5.45;;;;;;;;;;5054765;28;20108;-71
2022/08/28 13:09:53;;;;;;;26.60;5.75;;;;;;;;;;5053765;28;20389;-71
2022/08/28 13:12:40;;;;;;;26.08;5.70;;;;;;;;;;5054890;28;20021;-71
2022/08/28 13:15:08;;;;;;;19.23;5.63;;;;;;;;;;5055147;28;20082;-71
2022/08/28 13:17:43;;;;;;;17.25;5.60;;;;;;;;;;5055098;28;20021;-71
2022/08/28 13:20:10;;;;;;;22.35;5.75;;;;;;;;;;5057332;28;20040;-70
2022/08/28 13:22:41;;;;;;;20.92;5.28;;;;;;;;;;5056247;28;20478;-70
2022/08/28 13:25:07;;;;;;;15.45;5.15;;;;;;;;;;5056860;28;20025;-70
2022/08/28 13:27:33;;;;;;;21.10;5.68;;;;;;;;;;5054362;28;20075;-73
2022/08/28 13:30:03;;;;;;;17.23;5.38;;;;;;;;;;5054309;28;20021;-70
2022/08/28 13:32:30;;;;;;;17.10;5.57;;;;;;;;;;5054215;28;20423;-73
2022/08/28 13:35:15;;;;;;;17.60;5.57;;;;;;;;;;5054321;28;20096;-73
2022/08/28 13:37:46;;;;;;;16.40;6.00;;;;;;;;;;5054490;28;20025;-70
2022/08/28 13:40:13;;;;;;;19.67;5.50;;;;;;;;;;5054276;28;20025;-72
2022/08/28 13:42:39;;;;;;;14.77;5.28;;;;;;;;;;5054272;28;20036;-71
2022/08/28 13:45:06;;;;;;;22.83;5.30;;;;;;;;;;5054975;28;20021;-70
2022/08/28 13:47:32;;;;;;;17.95;5.78;;;;;;;;;;5054172;28;20028;-71
2022/08/28 13:49:58;;;;;;;16.38;5.57;;;;;;;;;;5055334;28;20021;-70
2022/08/28 13:52:24;;;;;;;16.40;5.63;;;;;;;;;;5055629;28;20021;-70
2022/08/28 13:54:50;;;;;;;18.05;5.85;;;;;;;;;;5055504;28;20328;-74
2022/08/28 13:57:16;;;;;;;19.95;5.93;;;;;;;;;;5057476;28;20059;-71
2022/08/28 13:59:42;;;;;;;22.75;6.32;;;;;;;;;;5054576;28;20041;-72
2022/08/28 14:04:55;;;;;;;16.85;5.93;;;;;;;;;;5056563;28;20028;-71
2022/08/28 14:07:21;;;;;;;16.42;5.65;;;;;;;;;;5054253;28;20029;-71
2022/08/28 14:09:47;;;;;;;24.73;6.00;;;;;;;;;;5053633;28;20070;-71
2022/08/28 14:12:13;;;;;;;16.30;5.18;;;;;;;;;;5053792;28;20489;-70
2022/08/28 14:14:39;;;;;;;17.73;5.50;;;;;;;;;;5054134;28;20037;-70
2022/08/28 14:17:06;;;;;;;16.65;5.38;;;;;;;;;;5053319;28;20466;-72
2022/08/28 14:19:32;;;;;;;16.15;5.82;;;;;;;;;;5036121;28;20035;-71
2022/08/28 14:21:58;;;;;;;15.25;5.07;;;;;;;;;;5036442;28;20029;-69
2022/08/28 14:24:24;;;;;;;18.48;5.38;;;;;;;;;;5053219;28;20032;-70
2022/08/28 14:26:50;;;;;;;20.33;5.20;;;;;;;;;;5055097;28;20035;-71
2022/08/28 14:29:16;;;;;;;14.20;4.38;;;;;;;;;;5054339;28;20100;-71
2022/08/28 14:31:43;;;;;;;19.35;5.32;;;;;;;;;;5059601;28;20025;-69
2022/08/28 14:34:11;;;;;;;19.13;5.20;;;;;;;;;;5053686;28;20470;-70
2022/08/28 14:36:37;;;;;;;17.95;5.40;;;;;;;;;;5054246;28;20059;-71
2022/08/28 14:39:05;;;;;;;15.98;4.70;;;;;;;;;;5054138;28;20025;-72
2022/08/28 14:41:31;;;;;;;18.02;5.40;;;;;;;;;;5053161;28;20116;-72
2022/08/28 14:43:57;;;;;;;18.10;5.60;;;;;;;;;;5052291;28;20061;-71
2022/08/28 14:46:27;;;;;;;24.88;6.25;;;;;;;;;;5066143;28;20502;-71
2022/08/28 14:48:54;;;;;;;16.77;5.25;;;;;;;;;;5066800;28;20087;-70